Time;durP1;ratioP1;P1;durP2;ratioP2;P2;SDS_P1;SDS_P2;PMS_P1;PMS_P2;Temp;Humidity;BMP_temperature;BMP_pressure;BME280_temperature;BME280_humidity;BME280_pressure;Samples;Min_cycle;Max_cycle;Signal;HPM_P1;HPM_P2
2023/10/02 00:01:10;;;;;;;17.55;8.75;;;;;;;;;;5094274;28;20028;-69
2023/10/02 00:03:40;;;;;;;18.50;9.05;;;;;;;;;;5094459;28;20028;-69
2023/10/02 00:06:09;;;;;;;19.25;9.23;;;;;;;;;;5094122;28;20012;-69
2023/10/02 00:08:51;;;;;;;18.65;8.95;;;;;;;;;;5094420;28;20024;-69
2023/10/02 00:11:36;;;;;;;17.98;9.68;;;;;;;;;;5093667;28;20018;-69
2023/10/02 00:14:19;;;;;;;17.80;8.88;;;;;;;;;;5093667;28;20495;-69
2023/10/02 00:17:05;;;;;;;21.20;9.75;;;;;;;;;;5093775;28;20036;-69
2023/10/02 00:19:38;;;;;;;18.15;9.32;;;;;;;;;;5093949;28;20028;-69
2023/10/02 00:22:09;;;;;;;19.25;9.05;;;;;;;;;;5093760;28;20017;-69
2023/10/02 00:24:37;;;;;;;19.83;9.35;;;;;;;;;;5093856;28;20586;-68
2023/10/02 00:27:04;;;;;;;18.08;9.43;;;;;;;;;;5093534;28;20023;-69
2023/10/02 00:29:31;;;;;;;16.92;8.90;;;;;;;;;;5093661;28;20476;-69
2023/10/02 00:31:58;;;;;;;17.75;9.40;;;;;;;;;;5093674;28;20032;-69
2023/10/02 00:34:31;;;;;;;17.75;9.13;;;;;;;;;;5094030;28;20028;-69
2023/10/02 00:37:05;;;;;;;19.00;9.43;;;;;;;;;;5075520;28;20024;-69
2023/10/02 00:39:35;;;;;;;20.42;9.95;;;;;;;;;;5093523;28;20039;-69
2023/10/02 00:47:38;;;;;;;26.25;10.88;;;;;;;;;;5093164;28;20108;-69
2023/10/02 00:50:10;;;;;;;18.55;9.32;;;;;;;;;;5075316;28;20511;-69
2023/10/02 00:52:40;;;;;;;19.27;9.13;;;;;;;;;;5093596;28;20034;-69
2023/10/02 00:55:08;;;;;;;20.07;9.40;;;;;;;;;;5093202;28;20492;-69
2023/10/02 00:57:38;;;;;;;24.50;10.68;;;;;;;;;;5093047;28;20017;-69
2023/10/02 01:00:21;;;;;;;21.45;10.18;;;;;;;;;;5092949;28;20035;-69
2023/10/02 01:02:49;;;;;;;21.48;10.07;;;;;;;;;;5093108;28;20026;-69
2023/10/02 01:05:16;;;;;;;23.52;10.10;;;;;;;;;;5093042;28;20374;-69
2023/10/02 01:07:44;;;;;;;20.15;9.48;;;;;;;;;;5093083;28;20534;-69
2023/10/02 01:10:17;;;;;;;19.35;9.52;;;;;;;;;;5092934;28;20028;-69
2023/10/02 01:12:50;;;;;;;18.08;9.15;;;;;;;;;;5092889;28;20522;-69
2023/10/02 01:15:20;;;;;;;18.25;9.18;;;;;;;;;;5091602;28;20018;-69
2023/10/02 01:17:48;;;;;;;22.20;10.30;;;;;;;;;;5092992;28;20024;-68
2023/10/02 01:20:32;;;;;;;20.52;9.77;;;;;;;;;;5092795;28;20129;-69
2023/10/02 01:23:11;;;;;;;21.48;10.35;;;;;;;;;;5092209;28;20016;-69
2023/10/02 01:25:39;;;;;;;20.70;9.60;;;;;;;;;;5092727;28;20020;-69
2023/10/02 01:28:05;;;;;;;22.00;9.20;;;;;;;;;;5092712;28;20020;-69
2023/10/02 01:30:31;;;;;;;20.17;9.80;;;;;;;;;;5092640;28;20038;-69
2023/10/02 01:33:17;;;;;;;19.90;9.65;;;;;;;;;;5092762;28;20016;-68
2023/10/02 01:35:46;;;;;;;20.27;10.13;;;;;;;;;;5093121;28;20096;-69
2023/10/02 01:38:14;;;;;;;17.90;9.40;;;;;;;;;;5092536;28;20023;-69
2023/10/02 01:40:41;;;;;;;23.30;10.00;;;;;;;;;;5092276;28;20024;-69
2023/10/02 01:43:13;;;;;;;18.98;9.63;;;;;;;;;;5093179;28;20032;-69
2023/10/02 01:45:44;;;;;;;20.95;9.85;;;;;;;;;;5092831;28;20020;-69
2023/10/02 01:48:13;;;;;;;;;;;;;;;;;;5093148;28;20604;-69
2023/10/02 01:50:42;;;;;;;22.65;10.65;;;;;;;;;;5092908;28;19904;-69
2023/10/02 01:53:28;;;;;;;23.73;10.85;;;;;;;;;;5092770;28;20027;-69
2023/10/02 01:56:10;;;;;;;22.08;9.93;;;;;;;;;;5092578;28;20020;-69
2023/10/02 01:58:39;;;;;;;21.00;10.55;;;;;;;;;;5092297;28;20034;-69
2023/10/02 02:01:06;;;;;;;19.88;10.13;;;;;;;;;;5092580;28;20023;-69
2023/10/02 02:03:33;;;;;;;20.17;10.25;;;;;;;;;;5092765;28;20026;-69
2023/10/02 02:06:09;;;;;;;20.30;9.73;;;;;;;;;;5092399;28;20024;-69
2023/10/02 02:08:36;;;;;;;18.65;10.07;;;;;;;;;;5092152;28;20484;-69
2023/10/02 02:11:17;;;;;;;19.27;9.30;;;;;;;;;;5092356;28;20400;-69
2023/10/02 02:13:44;;;;;;;23.52;10.13;;;;;;;;;;5092333;28;20031;-69
2023/10/02 02:16:35;;;;;;;17.15;9.43;;;;;;;;;;5092495;28;20028;-69
2023/10/02 02:19:08;;;;;;;20.48;10.07;;;;;;;;;;5074470;28;20387;-69
2023/10/02 02:21:35;;;;;;;21.02;10.73;;;;;;;;;;5092671;28;20024;-69
2023/10/02 02:24:07;;;;;;;21.08;10.23;;;;;;;;;;5092119;28;20035;-69
2023/10/02 02:26:33;;;;;;;19.52;9.88;;;;;;;;;;5092391;28;20487;-69
2023/10/02 02:29:03;;;;;;;23.52;10.75;;;;;;;;;;5092376;28;20084;-69
2023/10/02 02:31:30;;;;;;;22.83;10.53;;;;;;;;;;5092456;28;20016;-69
2023/10/02 02:34:06;;;;;;;22.77;10.88;;;;;;;;;;5093078;28;20020;-69
2023/10/02 02:36:35;;;;;;;22.92;9.93;;;;;;;;;;5096181;28;20043;-69
2023/10/02 02:39:15;;;;;;;21.48;10.98;;;;;;;;;;5077431;28;20046;-69
2023/10/02 02:42:12;;;;;;;23.52;10.55;;;;;;;;;;5096056;28;20473;-69
2023/10/02 02:44:46;;;;;;;23.90;11.07;;;;;;;;;;5096196;28;20036;-69
2023/10/02 02:47:21;;;;;;;23.33;9.90;;;;;;;;;;5095500;28;20027;-69
2023/10/02 02:49:52;;;;;;;23.23;10.60;;;;;;;;;;5095547;28;20129;-69
2023/10/02 02:52:26;;;;;;;23.67;10.52;;;;;;;;;;5095376;28;20016;-69
2023/10/02 02:54:59;;;;;;;22.30;10.73;;;;;;;;;;5077296;28;20040;-69
2023/10/02 02:57:27;;;;;;;20.38;10.50;;;;;;;;;;5095417;28;20031;-69
2023/10/02 03:00:24;;;;;;;25.33;11.15;;;;;;;;;;5095365;28;20035;-69
2023/10/02 03:02:40;;;;;;;23.15;10.68;;;;;;;;;;5095350;28;20024;-69
2023/10/02 03:05:11;;;;;;;24.10;10.30;;;;;;;;;;5095320;28;20020;-69
2023/10/02 03:07:42;;;;;;;23.90;11.00;;;;;;;;;;5095040;28;20034;-69
2023/10/02 03:10:10;;;;;;;;;;;;;;;;;;5095539;28;20105;-69
2023/10/02 03:12:44;;;;;;;24.20;11.10;;;;;;;;;;5095173;28;19904;-69
2023/10/02 03:15:12;;;;;;;23.20;11.18;;;;;;;;;;5077117;28;20034;-69
2023/10/02 03:17:41;;;;;;;22.02;10.57;;;;;;;;;;5077073;28;20038;-69
2023/10/02 03:20:23;;;;;;;23.55;10.90;;;;;;;;;;5095019;28;20022;-69
2023/10/02 03:22:53;;;;;;;23.60;11.40;;;;;;;;;;5095058;28;20093;-69
2023/10/02 03:28:16;;;;;;;24.80;11.10;;;;;;;;;;5094798;28;20046;-69
2023/10/02 03:30:47;;;;;;;25.52;11.15;;;;;;;;;;5094834;28;20423;-69
2023/10/02 03:33:20;;;;;;;26.52;11.32;;;;;;;;;;5095123;28;20012;-69
2023/10/02 03:35:58;;;;;;;24.58;11.43;;;;;;;;;;5094325;28;20032;-69
2023/10/02 03:38:32;;;;;;;24.02;11.70;;;;;;;;;;5094708;28;20018;-69
2023/10/02 03:41:00;;;;;;;24.52;11.10;;;;;;;;;;5076704;28;20499;-69
2023/10/02 03:43:42;;;;;;;22.05;10.82;;;;;;;;;;5076693;28;20031;-69
2023/10/02 03:46:15;;;;;;;23.40;10.90;;;;;;;;;;5075747;28;20387;-69
2023/10/02 03:48:44;;;;;;;29.50;11.80;;;;;;;;;;5094611;28;20024;-68
2023/10/02 03:51:35;;;;;;;25.13;11.25;;;;;;;;;;5094404;28;20028;-68
2023/10/02 03:54:17;;;;;;;28.05;12.02;;;;;;;;;;5094254;28;20381;-69
2023/10/02 03:56:47;;;;;;;23.83;11.15;;;;;;;;;;5076288;28;20063;-68
2023/10/02 03:59:17;;;;;;;23.33;11.52;;;;;;;;;;5094124;28;20026;-68
2023/10/02 04:01:43;;;;;;;24.65;11.18;;;;;;;;;;5094322;28;20031;-69
2023/10/02 04:06:36;;;;;;;27.23;11.70;;;;;;;;;;5094111;28;20081;-69
2023/10/02 04:09:12;;;;;;;32.13;11.95;;;;;;;;;;5076110;28;20480;-69
2023/10/02 04:11:39;;;;;;;24.67;10.50;;;;;;;;;;5094405;28;20032;-69
2023/10/02 04:14:17;;;;;;;24.33;11.85;;;;;;;;;;5094264;28;20030;-69
2023/10/02 04:17:08;;;;;;;26.70;11.75;;;;;;;;;;5094173;28;20024;-69
2023/10/02 04:19:35;;;;;;;25.45;11.40;;;;;;;;;;5093490;28;20028;-69
2023/10/02 04:22:06;;;;;;;23.20;11.02;;;;;;;;;;5093850;28;20032;-69
2023/10/02 04:25:24;;;;;;;24.73;11.45;;;;;;;;;;5093925;28;20020;-69
2023/10/02 04:27:27;;;;;;;22.52;10.73;;;;;;;;;;5082900;28;20046;-69
2023/10/02 04:32:33;;;;;;;25.63;11.48;;;;;;;;;;5093695;28;20034;-69
2023/10/02 04:35:02;;;;;;;24.58;11.65;;;;;;;;;;5093220;28;20400;-69
2023/10/02 04:37:32;;;;;;;27.27;11.95;;;;;;;;;;5093490;28;20079;-69
2023/10/02 04:45:21;;;;;;;26.50;11.43;;;;;;;;;;5093418;28;20024;-69
2023/10/02 04:47:48;;;;;;;27.35;11.50;;;;;;;;;;5093258;28;20078;-69
2023/10/02 04:50:34;;;;;;;24.33;11.38;;;;;;;;;;5093142;28;20036;-69
2023/10/02 04:56:46;;;;;;;24.85;11.60;;;;;;;;;;5075744;28;20032;-69
2023/10/02 04:58:49;;;;;;;23.70;11.75;;;;;;;;;;5079224;28;20032;-69
2023/10/02 05:03:55;;;;;;;24.88;11.43;;;;;;;;;;5093049;28;20036;-69
2023/10/02 05:11:50;;;;;;;25.20;12.68;;;;;;;;;;5092991;28;20020;-69
2023/10/02 05:14:26;;;;;;;25.40;11.10;;;;;;;;;;5093001;28;20076;-70
2023/10/02 05:17:16;;;;;;;28.27;11.70;;;;;;;;;;5092378;28;20038;-68
2023/10/02 05:20:00;;;;;;;28.67;12.80;;;;;;;;;;5092835;28;20519;-69
2023/10/02 05:22:27;;;;;;;24.42;11.65;;;;;;;;;;5093196;28;20026;-69
2023/10/02 05:25:04;;;;;;;25.25;12.45;;;;;;;;;;5092956;28;20024;-69
2023/10/02 05:27:35;;;;;;;27.23;12.20;;;;;;;;;;5092921;28;20030;-69
2023/10/02 05:30:12;;;;;;;25.05;11.63;;;;;;;;;;5074545;28;20039;-69
2023/10/02 05:32:39;;;;;;;26.10;11.95;;;;;;;;;;5092660;28;20027;-69
2023/10/02 05:37:45;;;;;;;27.08;12.20;;;;;;;;;;5092848;28;20017;-69
2023/10/02 05:42:53;;;;;;;25.10;11.80;;;;;;;;;;5092938;28;20020;-69
2023/10/02 05:45:37;;;;;;;28.42;12.68;;;;;;;;;;5092666;28;20036;-68
2023/10/02 05:48:07;;;;;;;26.35;12.05;;;;;;;;;;5105185;28;20024;-69
2023/10/02 05:50:40;;;;;;;28.42;11.93;;;;;;;;;;5093923;28;20512;-69
2023/10/02 05:53:09;;;;;;;27.60;12.00;;;;;;;;;;5111735;28;20011;-69
2023/10/02 05:55:56;;;;;;;25.15;11.25;;;;;;;;;;5111744;28;20048;-69
2023/10/02 05:58:31;;;;;;;26.45;12.45;;;;;;;;;;5093139;28;20027;-69
2023/10/02 06:01:01;;;;;;;30.20;11.25;;;;;;;;;;5110497;28;20024;-69
2023/10/02 06:03:29;;;;;;;23.92;12.32;;;;;;;;;;5091525;28;20032;-68
2023/10/02 06:08:41;;;;;;;26.60;12.35;;;;;;;;;;5072869;28;20032;-69
2023/10/02 06:11:25;;;;;;;28.33;12.48;;;;;;;;;;5095800;28;20027;-69
2023/10/02 06:13:55;;;;;;;26.13;11.63;;;;;;;;;;5092622;28;20028;-69
2023/10/02 06:16:23;;;;;;;26.20;11.90;;;;;;;;;;5093349;28;20028;-68
2023/10/02 06:19:02;;;;;;;27.05;11.88;;;;;;;;;;5095086;28;20032;-69
2023/10/02 06:21:32;;;;;;;30.75;12.68;;;;;;;;;;5094696;28;20016;-69
2023/10/02 06:24:01;;;;;;;23.50;11.35;;;;;;;;;;5094903;28;20024;-67
2023/10/02 06:26:46;;;;;;;28.20;11.85;;;;;;;;;;5095144;28;20476;-68
2023/10/02 06:29:25;;;;;;;27.95;12.15;;;;;;;;;;5094266;28;20036;-68
2023/10/02 06:31:58;;;;;;;29.40;12.15;;;;;;;;;;5095327;28;20488;-69
2023/10/02 06:34:25;;;;;;;25.33;11.73;;;;;;;;;;5095100;28;20492;-69
2023/10/02 06:37:02;;;;;;;27.70;12.15;;;;;;;;;;5095367;28;20026;-69
2023/10/02 06:39:35;;;;;;;25.30;12.32;;;;;;;;;;5091708;28;20032;-69
2023/10/02 06:42:05;;;;;;;37.38;12.98;;;;;;;;;;5094390;28;20485;-69
2023/10/02 06:44:41;;;;;;;26.60;11.68;;;;;;;;;;5094178;28;20039;-69
2023/10/02 06:47:13;;;;;;;25.85;12.18;;;;;;;;;;5094850;28;20020;-69
2023/10/02 06:49:45;;;;;;;27.05;11.95;;;;;;;;;;5095099;28;20038;-69
2023/10/02 06:52:15;;;;;;;28.67;11.93;;;;;;;;;;5092950;28;20028;-69
2023/10/02 06:54:45;;;;;;;25.15;11.38;;;;;;;;;;5093778;28;20032;-69
2023/10/02 06:57:13;;;;;;;25.83;12.23;;;;;;;;;;5094627;28;20076;-69
2023/10/02 06:59:40;;;;;;;28.75;11.30;;;;;;;;;;5093644;28;20026;-69
2023/10/02 07:02:07;;;;;;;29.40;10.85;;;;;;;;;;5094127;28;20030;-69
2023/10/02 07:04:35;;;;;;;20.98;9.82;;;;;;;;;;5094063;28;20026;-69
2023/10/02 07:07:03;;;;;;;27.38;11.32;;;;;;;;;;5094094;28;20036;-69
2023/10/02 07:09:33;;;;;;;25.48;11.95;;;;;;;;;;5094000;28;20061;-69
2023/10/02 07:12:08;;;;;;;20.47;10.03;;;;;;;;;;5093805;28;20024;-69
2023/10/02 07:14:38;;;;;;;19.98;9.85;;;;;;;;;;5093663;28;20022;-69
2023/10/02 07:17:17;;;;;;;22.67;10.73;;;;;;;;;;5082065;28;20373;-69
2023/10/02 07:19:48;;;;;;;25.35;11.38;;;;;;;;;;5093082;28;20039;-69
2023/10/02 07:22:25;;;;;;;31.40;12.20;;;;;;;;;;5091478;28;20021;-68
2023/10/02 07:24:52;;;;;;;27.25;12.73;;;;;;;;;;5093641;28;20028;-70
2023/10/02 07:27:23;;;;;;;31.83;12.18;;;;;;;;;;5093176;28;20529;-69
2023/10/02 07:29:54;;;;;;;27.38;12.45;;;;;;;;;;5093797;28;20459;-69
2023/10/02 07:32:21;;;;;;;30.23;12.67;;;;;;;;;;5092838;28;20020;-69
2023/10/02 07:34:48;;;;;;;29.98;12.73;;;;;;;;;;5093177;28;20392;-69
2023/10/02 07:37:21;;;;;;;27.90;12.75;;;;;;;;;;5092625;28;20016;-69
2023/10/02 07:39:48;;;;;;;25.17;11.90;;;;;;;;;;5092720;28;20031;-69
2023/10/02 07:42:16;;;;;;;24.98;12.25;;;;;;;;;;5092888;28;20752;-69
2023/10/02 07:44:42;;;;;;;29.70;12.68;;;;;;;;;;5092380;28;20392;-69
2023/10/02 07:47:20;;;;;;;26.15;12.00;;;;;;;;;;5091474;28;20028;-69
2023/10/02 07:50:24;;;;;;;23.83;12.07;;;;;;;;;;4991170;28;20050;-69
2023/10/02 07:53:19;;;;;;;25.23;13.00;;;;;;;;;;4920670;29;20040;-70
2023/10/02 07:56:12;;;;;;;24.00;12.57;;;;;;;;;;4907941;29;20060;-69
2023/10/02 07:59:01;;;;;;;23.85;13.27;;;;;;;;;;4896608;29;20043;-69
2023/10/02 08:01:45;;;;;;;26.08;13.70;;;;;;;;;;4895586;29;20039;-71
2023/10/02 08:04:13;;;;;;;23.90;13.45;;;;;;;;;;4895724;29;20040;-69
2023/10/02 08:06:45;;;;;;;25.40;12.93;;;;;;;;;;4894379;29;20208;-69
2023/10/02 08:11:57;;;;;;;20.63;12.63;;;;;;;;;;4903566;29;20032;-69
2023/10/02 08:14:42;;;;;;;22.63;12.48;;;;;;;;;;4913910;29;20032;-69
2023/10/02 08:17:22;;;;;;;20.67;12.68;;;;;;;;;;4876717;29;20067;-68
2023/10/02 08:19:54;;;;;;;25.70;13.73;;;;;;;;;;4884705;29;20040;-68
2023/10/02 08:22:35;;;;;;;25.52;13.88;;;;;;;;;;4895189;29;20052;-68
2023/10/02 08:25:02;;;;;;;22.55;13.32;;;;;;;;;;4894516;29;20392;-69
2023/10/02 08:27:32;;;;;;;20.52;12.30;;;;;;;;;;4943550;29;20031;-69
2023/10/02 08:30:01;;;;;;;22.55;11.95;;;;;;;;;;4990002;28;20560;-69
2023/10/02 08:32:30;;;;;;;27.17;13.57;;;;;;;;;;5025683;28;20074;-69
2023/10/02 08:34:57;;;;;;;21.25;13.30;;;;;;;;;;5091926;28;20032;-69
2023/10/02 08:37:25;;;;;;;24.27;12.38;;;;;;;;;;5091766;28;20415;-70
2023/10/02 08:39:51;;;;;;;30.17;12.90;;;;;;;;;;5091785;28;20031;-69
2023/10/02 08:42:24;;;;;;;29.50;13.30;;;;;;;;;;5092035;28;20028;-67
2023/10/02 08:44:50;;;;;;;20.08;12.88;;;;;;;;;;5091650;28;20481;-68
2023/10/02 08:47:25;;;;;;;23.77;12.77;;;;;;;;;;5091579;28;20096;-67
2023/10/02 08:50:10;;;;;;;20.67;11.95;;;;;;;;;;5091727;28;20493;-69
2023/10/02 08:52:42;;;;;;;21.50;13.23;;;;;;;;;;5091084;28;20366;-67
2023/10/02 08:55:33;;;;;;;19.70;12.60;;;;;;;;;;5090907;28;20043;-71
2023/10/02 08:58:19;;;;;;;28.40;12.55;;;;;;;;;;5091212;28;20489;-68
2023/10/02 09:01:41;;;;;;;22.58;12.93;;;;;;;;;;5091434;28;20034;-68
2023/10/02 09:03:49;;;;;;;23.13;12.65;;;;;;;;;;5085760;28;20042;-67
2023/10/02 09:06:31;;;;;;;19.17;12.13;;;;;;;;;;5084732;28;20694;-68
2023/10/02 09:09:21;;;;;;;18.00;12.27;;;;;;;;;;5091421;28;20353;-68
2023/10/02 09:11:52;;;;;;;;;;;;;;;;;;5091846;28;20485;-67
2023/10/02 09:16:46;;;;;;;20.00;11.85;;;;;;;;;;5091180;28;20028;-68
2023/10/02 09:19:30;;;;;;;20.85;11.70;;;;;;;;;;5091595;28;20028;-67
2023/10/02 09:22:06;;;;;;;18.42;12.40;;;;;;;;;;5091539;28;20028;-67
2023/10/02 09:24:35;;;;;;;19.17;11.32;;;;;;;;;;5090562;28;20012;-68
2023/10/02 09:29:49;;;;;;;17.13;10.45;;;;;;;;;;5090671;28;20046;-68
2023/10/02 09:32:24;;;;;;;11.18;6.28;;;;;;;;;;5091216;28;20020;-68
2023/10/02 09:35:10;;;;;;;13.18;6.97;;;;;;;;;;5090247;28;20034;-67
2023/10/02 09:37:41;;;;;;;11.68;6.88;;;;;;;;;;5089914;28;20031;-67
2023/10/02 09:40:17;;;;;;;9.23;6.07;;;;;;;;;;5073028;28;20033;-67
2023/10/02 09:42:46;;;;;;;13.88;6.80;;;;;;;;;;5075262;28;20016;-66
2023/10/02 09:45:16;;;;;;;12.13;6.32;;;;;;;;;;5093872;28;20050;-67
2023/10/02 09:47:42;;;;;;;10.70;5.25;;;;;;;;;;5095797;28;20069;-67
2023/10/02 09:50:26;;;;;;;6.35;4.22;;;;;;;;;;5094229;28;20450;-68
2023/10/02 09:52:58;;;;;;;6.78;4.57;;;;;;;;;;5094314;28;20050;-67
2023/10/02 09:55:44;;;;;;;12.45;4.07;;;;;;;;;;5094760;28;20121;-67
2023/10/02 09:58:26;;;;;;;9.55;4.43;;;;;;;;;;5094917;28;20028;-69
2023/10/02 10:01:59;;;;;;;8.48;4.47;;;;;;;;;;5094462;28;20028;-69
2023/10/02 10:03:58;;;;;;;11.23;4.50;;;;;;;;;;5082896;28;20032;-69
2023/10/02 10:06:28;;;;;;;6.10;3.88;;;;;;;;;;5093359;28;20491;-69
2023/10/02 10:11:45;;;;;;;6.07;4.00;;;;;;;;;;5094957;28;20032;-70
2023/10/02 10:14:36;;;;;;;7.18;4.95;;;;;;;;;;5095376;28;20012;-70
2023/10/02 10:17:12;;;;;;;8.68;4.65;;;;;;;;;;5094943;28;20548;-70
2023/10/02 10:22:55;;;;;;;6.32;3.97;;;;;;;;;;5061019;28;20045;-70
2023/10/02 10:27:54;;;;;;;6.68;4.47;;;;;;;;;;5083514;28;20034;-69
2023/10/02 10:35:51;;;;;;;4.97;4.22;;;;;;;;;;5094009;28;20065;-70
2023/10/02 10:38:36;;;;;;;7.55;4.80;;;;;;;;;;5094612;28;20069;-69
2023/10/02 10:41:14;;;;;;;7.50;4.85;;;;;;;;;;5094256;28;20021;-70
2023/10/02 10:43:44;;;;;;;10.65;5.20;;;;;;;;;;5094136;28;20020;-70
2023/10/02 10:46:19;;;;;;;9.97;5.40;;;;;;;;;;5094239;28;20034;-70
2023/10/02 10:48:48;;;;;;;15.68;5.30;;;;;;;;;;5094043;28;20039;-70
2023/10/02 10:51:21;;;;;;;15.23;4.88;;;;;;;;;;5093861;28;20038;-70
2023/10/02 10:53:52;;;;;;;7.30;5.30;;;;;;;;;;5094216;28;20048;-70
2023/10/02 10:56:19;;;;;;;8.32;5.25;;;;;;;;;;5093711;28;20036;-70
2023/10/02 10:58:47;;;;;;;11.48;4.93;;;;;;;;;;5094005;28;20046;-70
2023/10/02 11:01:16;;;;;;;8.93;5.30;;;;;;;;;;5094163;28;20026;-70
2023/10/02 11:03:43;;;;;;;8.45;4.85;;;;;;;;;;5094085;28;20469;-70
2023/10/02 11:06:10;;;;;;;11.35;4.93;;;;;;;;;;5093596;28;20038;-70
2023/10/02 11:08:40;;;;;;;7.65;5.22;;;;;;;;;;5093828;28;20028;-70
2023/10/02 11:11:18;;;;;;;8.90;4.80;;;;;;;;;;5094349;28;20485;-70
2023/10/02 11:13:58;;;;;;;8.52;5.38;;;;;;;;;;5094442;28;20028;-70
2023/10/02 11:16:30;;;;;;;7.60;4.97;;;;;;;;;;5093635;28;20024;-70
2023/10/02 11:22:02;;;;;;;8.45;5.75;;;;;;;;;;5080281;28;20050;-70
2023/10/02 11:24:29;;;;;;;9.45;5.20;;;;;;;;;;5094094;28;20081;-70
2023/10/02 11:27:06;;;;;;;7.60;5.10;;;;;;;;;;5093685;28;20028;-71
2023/10/02 11:29:45;;;;;;;8.20;5.57;;;;;;;;;;5093811;28;20040;-70
2023/10/02 11:32:23;;;;;;;8.55;5.43;;;;;;;;;;5093819;28;20499;-70
2023/10/02 11:34:51;;;;;;;9.88;6.18;;;;;;;;;;5093602;28;20035;-68
2023/10/02 11:37:18;;;;;;;8.23;6.28;;;;;;;;;;5092736;28;20476;-70
2023/10/02 11:39:50;;;;;;;8.00;5.55;;;;;;;;;;5090958;28;20495;-70
2023/10/02 11:42:18;;;;;;;10.93;7.00;;;;;;;;;;5078575;28;20024;-67
2023/10/02 11:44:44;;;;;;;9.77;5.80;;;;;;;;;;5092871;28;20024;-70
2023/10/02 11:47:11;;;;;;;8.70;6.55;;;;;;;;;;5093105;28;20163;-70
2023/10/02 11:49:37;;;;;;;13.50;6.28;;;;;;;;;;5092014;28;20545;-70
2023/10/02 11:52:04;;;;;;;10.45;6.35;;;;;;;;;;5093105;28;20519;-70
2023/10/02 11:54:39;;;;;;;7.15;5.45;;;;;;;;;;5092909;28;20044;-70
2023/10/02 11:57:09;;;;;;;9.20;5.50;;;;;;;;;;5093309;28;20036;-70
2023/10/02 11:59:39;;;;;;;7.15;5.57;;;;;;;;;;5085494;28;20039;-70
2023/10/02 12:02:05;;;;;;;;;;;;;;;;;;5092322;28;20073;-70
2023/10/02 12:04:34;;;;;;;8.77;5.80;;;;;;;;;;5092484;28;19908;-70
2023/10/02 12:07:00;;;;;;;7.95;6.15;;;;;;;;;;5091525;28;20016;-70
2023/10/02 12:09:27;;;;;;;10.55;6.90;;;;;;;;;;5092016;28;20040;-70
2023/10/02 12:11:54;;;;;;;10.52;6.47;;;;;;;;;;5092927;28;20053;-70
2023/10/02 12:14:22;;;;;;;11.82;6.53;;;;;;;;;;5092788;28;20484;-70
2023/10/02 12:16:48;;;;;;;8.68;6.15;;;;;;;;;;5092877;28;20080;-70
2023/10/02 12:19:15;;;;;;;10.68;6.43;;;;;;;;;;5092097;28;20032;-70
2023/10/02 12:21:41;;;;;;;8.73;6.45;;;;;;;;;;5082886;28;20020;-68
2023/10/02 12:24:08;;;;;;;14.90;6.18;;;;;;;;;;5092544;28;20554;-69
2023/10/02 12:26:35;;;;;;;9.63;6.35;;;;;;;;;;5092420;28;20508;-70
2023/10/02 12:29:02;;;;;;;10.18;7.03;;;;;;;;;;5092081;28;20020;-67
2023/10/02 12:31:30;;;;;;;8.93;6.00;;;;;;;;;;5091931;28;20028;-67
2023/10/02 12:33:56;;;;;;;9.85;6.15;;;;;;;;;;5092771;28;20016;-69
2023/10/02 12:36:26;;;;;;;9.23;6.75;;;;;;;;;;5092542;28;20028;-69
2023/10/02 12:38:53;;;;;;;10.65;6.32;;;;;;;;;;5092066;28;20032;-69
2023/10/02 12:41:23;;;;;;;10.98;6.88;;;;;;;;;;5079962;28;20044;-70
2023/10/02 12:43:55;;;;;;;14.75;7.35;;;;;;;;;;5092195;28;20016;-70
2023/10/02 12:46:25;;;;;;;10.63;7.05;;;;;;;;;;5092137;28;20035;-69
2023/10/02 12:48:52;;;;;;;;;;;;;;;;;;5092445;28;20020;-69
2023/10/02 12:51:22;;;;;;;11.48;7.03;;;;;;;;;;5091040;28;19911;-70
2023/10/02 12:53:50;;;;;;;10.35;6.68;;;;;;;;;;5091628;28;20047;-70
2023/10/02 12:56:26;;;;;;;9.05;6.65;;;;;;;;;;5090678;28;20042;-70
2023/10/02 12:58:54;;;;;;;12.32;7.00;;;;;;;;;;5091372;28;20029;-70
2023/10/02 13:01:27;;;;;;;13.48;6.55;;;;;;;;;;5091304;28;20042;-70
2023/10/02 13:03:54;;;;;;;10.20;7.05;;;;;;;;;;5091621;28;20519;-70
2023/10/02 13:06:22;;;;;;;13.90;7.43;;;;;;;;;;5091835;28;20038;-70
2023/10/02 13:08:48;;;;;;;13.88;6.85;;;;;;;;;;5090620;28;20361;-68
2023/10/02 13:11:19;;;;;;;11.65;7.22;;;;;;;;;;5091597;28;20031;-70
2023/10/02 13:13:46;;;;;;;9.75;6.70;;;;;;;;;;5091389;28;20030;-70
2023/10/02 13:16:16;;;;;;;10.63;7.03;;;;;;;;;;5092376;28;20510;-69
2023/10/02 13:18:43;;;;;;;9.00;6.38;;;;;;;;;;5071556;28;20021;-69
2023/10/02 13:21:10;;;;;;;10.52;6.43;;;;;;;;;;5085953;28;20040;-70
2023/10/02 13:23:37;;;;;;;14.23;6.93;;;;;;;;;;5091474;28;20028;-70
2023/10/02 13:26:10;;;;;;;12.38;6.90;;;;;;;;;;5091005;28;20028;-70
2023/10/02 13:28:37;;;;;;;11.30;6.82;;;;;;;;;;5091530;28;20046;-70
2023/10/02 13:31:13;;;;;;;9.38;6.68;;;;;;;;;;5091222;28;20012;-70
2023/10/02 13:33:52;;;;;;;9.82;6.15;;;;;;;;;;5091261;28;20046;-70
2023/10/02 13:36:22;;;;;;;10.52;6.75;;;;;;;;;;5090850;28;20062;-70
2023/10/02 13:38:51;;;;;;;11.70;6.72;;;;;;;;;;5091338;28;20476;-71
2023/10/02 13:41:18;;;;;;;10.13;6.50;;;;;;;;;;5091231;28;20036;-70
2023/10/02 13:43:45;;;;;;;11.57;6.93;;;;;;;;;;5091382;28;20028;-71
2023/10/02 13:46:14;;;;;;;11.57;6.55;;;;;;;;;;5090810;28;20471;-70
2023/10/02 13:49:01;;;;;;;12.68;7.43;;;;;;;;;;5090613;28;20036;-70
2023/10/02 13:51:27;;;;;;;11.80;6.88;;;;;;;;;;5091392;28;20034;-70
2023/10/02 13:53:54;;;;;;;10.07;6.75;;;;;;;;;;5091142;28;20048;-69
2023/10/02 13:56:21;;;;;;;9.23;6.53;;;;;;;;;;5091035;28;20031;-70
2023/10/02 13:58:48;;;;;;;9.77;6.85;;;;;;;;;;5090861;28;20020;-70
2023/10/02 14:01:15;;;;;;;10.15;6.43;;;;;;;;;;5090302;28;20028;-70
2023/10/02 14:03:45;;;;;;;9.15;6.35;;;;;;;;;;5089295;28;20023;-70
2023/10/02 14:06:13;;;;;;;10.35;7.20;;;;;;;;;;5090470;28;20035;-70
2023/10/02 14:08:40;;;;;;;10.75;7.10;;;;;;;;;;5090813;28;20024;-70
2023/10/02 14:11:10;;;;;;;13.57;6.75;;;;;;;;;;5091207;28;20036;-70
2023/10/02 14:13:36;;;;;;;9.90;6.70;;;;;;;;;;5080904;28;20024;-69
2023/10/02 14:16:07;;;;;;;10.55;6.50;;;;;;;;;;5091253;28;20032;-70
2023/10/02 14:18:35;;;;;;;10.18;6.55;;;;;;;;;;5090437;28;20030;-69
2023/10/02 14:21:09;;;;;;;12.40;6.88;;;;;;;;;;5090883;28;20032;-70
2023/10/02 14:23:36;;;;;;;12.60;6.88;;;;;;;;;;5090848;28;20012;-70
2023/10/02 14:26:06;;;;;;;10.40;6.60;;;;;;;;;;5090801;28;20027;-70
2023/10/02 14:28:33;;;;;;;10.75;6.43;;;;;;;;;;5090570;28;20024;-70
2023/10/02 14:31:00;;;;;;;14.98;7.45;;;;;;;;;;5092897;28;20025;-70
2023/10/02 14:33:26;;;;;;;10.48;6.57;;;;;;;;;;5093150;28;20024;-70
2023/10/02 14:35:53;;;;;;;8.80;6.03;;;;;;;;;;5094676;28;20032;-70
2023/10/02 14:38:21;;;;;;;14.73;6.30;;;;;;;;;;5092267;28;20035;-70
2023/10/02 14:40:48;;;;;;;10.65;6.65;;;;;;;;;;5094038;28;20316;-69
2023/10/02 14:43:14;;;;;;;12.27;6.75;;;;;;;;;;5094287;28;20028;-70
2023/10/02 14:45:42;;;;;;;11.32;6.50;;;;;;;;;;5094118;28;20644;-70
2023/10/02 14:48:08;;;;;;;14.35;6.28;;;;;;;;;;5094077;28;20027;-70
2023/10/02 14:50:35;;;;;;;9.75;6.25;;;;;;;;;;5081975;28;20024;-70
2023/10/02 14:53:02;;;;;;;11.13;5.75;;;;;;;;;;5093527;28;20032;-70
2023/10/02 14:55:28;;;;;;;10.63;6.03;;;;;;;;;;5094782;28;20031;-69
2023/10/02 14:57:55;;;;;;;15.23;6.70;;;;;;;;;;5094613;28;20028;-69
2023/10/02 15:00:22;;;;;;;8.40;6.07;;;;;;;;;;5092910;28;20032;-69
2023/10/02 15:02:50;;;;;;;9.88;6.30;;;;;;;;;;5093795;28;20012;-69
2023/10/02 15:05:18;;;;;;;10.25;5.80;;;;;;;;;;5094103;28;20024;-70
2023/10/02 15:07:47;;;;;;;8.45;5.75;;;;;;;;;;5093382;28;20024;-70
2023/10/02 15:10:15;;;;;;;10.38;6.03;;;;;;;;;;5074084;28;20034;-70
2023/10/02 15:12:41;;;;;;;9.60;6.03;;;;;;;;;;5078430;28;20046;-69
2023/10/02 15:15:13;;;;;;;9.65;5.90;;;;;;;;;;5093770;28;20492;-69
2023/10/02 15:17:45;;;;;;;11.65;6.55;;;;;;;;;;5093650;28;20392;-70
2023/10/02 15:20:16;;;;;;;13.30;6.18;;;;;;;;;;5092625;28;20038;-69
2023/10/02 15:22:47;;;;;;;13.38;6.43;;;;;;;;;;5082329;28;20024;-69
2023/10/02 15:25:14;;;;;;;12.43;6.55;;;;;;;;;;5093863;28;20020;-69
2023/10/02 15:27:42;;;;;;;11.65;6.03;;;;;;;;;;5093380;28;20030;-69
2023/10/02 15:30:12;;;;;;;10.02;6.25;;;;;;;;;;5094231;28;20024;-69
2023/10/02 15:32:39;;;;;;;10.73;5.75;;;;;;;;;;5076646;28;20081;-69
2023/10/02 15:35:06;;;;;;;13.85;7.15;;;;;;;;;;5094802;28;20032;-69
2023/10/02 15:37:33;;;;;;;10.80;6.95;;;;;;;;;;5094258;28;20016;-69
2023/10/02 15:40:07;;;;;;;14.10;6.95;;;;;;;;;;5093808;28;20032;-69
2023/10/02 15:42:37;;;;;;;12.65;6.53;;;;;;;;;;5075172;28;20502;-69
2023/10/02 15:45:04;;;;;;;9.48;6.50;;;;;;;;;;5093237;28;20043;-69
2023/10/02 15:47:33;;;;;;;14.00;6.90;;;;;;;;;;5092890;28;20028;-69
2023/10/02 15:49:59;;;;;;;16.42;7.07;;;;;;;;;;5075378;28;20032;-68
2023/10/02 15:52:29;;;;;;;11.25;6.32;;;;;;;;;;5105235;28;20012;-68
2023/10/02 15:55:00;;;;;;;9.98;6.45;;;;;;;;;;5113073;28;20500;-69
2023/10/02 15:57:27;;;;;;;16.83;6.30;;;;;;;;;;5113561;28;20034;-69
2023/10/02 15:59:53;;;;;;;20.13;6.75;;;;;;;;;;5113932;28;20024;-69